sensor_id;sensor_type;location;lat;lon;timestamp;temperature;humidity
50013;DHT22;35901;48.694;9.476;2022-11-24T00:01:30;5.80;99.90
50013;DHT22;35901;48.694;9.476;2022-11-24T00:04:01;5.80;99.90
50013;DHT22;35901;48.694;9.476;2022-11-24T00:06:28;5.80;99.90
50013;DHT22;35901;48.694;9.476;2022-11-24T00:08:55;5.80;99.90
50013;DHT22;35901;48.694;9.476;2022-11-24T00:11:26;5.80;99.90
50013;DHT22;35901;48.694;9.476;2022-11-24T00:13:53;5.70;99.90
50013;DHT22;35901;48.694;9.476;2022-11-24T00:16:24;5.60;99.90
50013;DHT22;35901;48.694;9.476;2022-11-24T00:18:52;5.60;99.90
50013;DHT22;35901;48.694;9.476;2022-11-24T00:21:19;5.50;99.90
50013;DHT22;35901;48.694;9.476;2022-11-24T00:23:45;5.50;99.90
50013;DHT22;35901;48.694;9.476;2022-11-24T00:26:13;5.50;99.90
50013;DHT22;35901;48.694;9.476;2022-11-24T00:28:40;5.50;99.90
50013;DHT22;35901;48.694;9.476;2022-11-24T00:31:20;5.60;99.90
50013;DHT22;35901;48.694;9.476;2022-11-24T00:33:48;5.70;99.90
50013;DHT22;35901;48.694;9.476;2022-11-24T00:36:15;5.80;99.90
50013;DHT22;35901;48.694;9.476;2022-11-24T00:38:41;5.90;99.90
50013;DHT22;35901;48.694;9.476;2022-11-24T00:41:07;5.90;99.90
50013;DHT22;35901;48.694;9.476;2022-11-24T00:43:33;6.00;99.90
50013;DHT22;35901;48.694;9.476;2022-11-24T00:45:58;6.00;99.90
50013;DHT22;35901;48.694;9.476;2022-11-24T00:48:24;6.00;99.90
50013;DHT22;35901;48.694;9.476;2022-11-24T00:51:01;5.90;99.90
50013;DHT22;35901;48.694;9.476;2022-11-24T00:53:28;5.80;99.90
50013;DHT22;35901;48.694;9.476;2022-11-24T00:55:54;5.80;99.90
50013;DHT22;35901;48.694;9.476;2022-11-24T00:58:27;5.70;99.90
50013;DHT22;35901;48.694;9.476;2022-11-24T01:00:53;5.70;99.90
50013;DHT22;35901;48.694;9.476;2022-11-24T01:03:19;5.70;99.90
50013;DHT22;35901;48.694;9.476;2022-11-24T01:05:45;5.70;99.90
50013;DHT22;35901;48.694;9.476;2022-11-24T01:08:11;5.60;99.90
50013;DHT22;35901;48.694;9.476;2022-11-24T01:10:37;5.70;99.90
50013;DHT22;35901;48.694;9.476;2022-11-24T01:13:03;5.70;99.90
50013;DHT22;35901;48.694;9.476;2022-11-24T01:15:29;5.60;99.90
50013;DHT22;35901;48.694;9.476;2022-11-24T01:17:55;5.60;99.90
50013;DHT22;35901;48.694;9.476;2022-11-24T01:20:21;5.50;99.90
50013;DHT22;35901;48.694;9.476;2022-11-24T01:22:48;5.50;99.90
50013;DHT22;35901;48.694;9.476;2022-11-24T01:25:14;5.50;99.90
50013;DHT22;35901;48.694;9.476;2022-11-24T01:27:39;5.40;99.90
50013;DHT22;35901;48.694;9.476;2022-11-24T01:30:06;5.40;99.90
50013;DHT22;35901;48.694;9.476;2022-11-24T01:32:32;5.40;99.90
50013;DHT22;35901;48.694;9.476;2022-11-24T01:35:03;5.30;99.90
50013;DHT22;35901;48.694;9.476;2022-11-24T01:37:29;5.20;99.90
50013;DHT22;35901;48.694;9.476;2022-11-24T01:39:55;5.10;99.90
50013;DHT22;35901;48.694;9.476;2022-11-24T01:42:21;5.00;99.90
50013;DHT22;35901;48.694;9.476;2022-11-24T01:44:49;5.00;99.90
50013;DHT22;35901;48.694;9.476;2022-11-24T01:47:36;4.90;99.90
50013;DHT22;35901;48.694;9.476;2022-11-24T01:50:12;4.80;99.90
50013;DHT22;35901;48.694;9.476;2022-11-24T01:52:44;4.80;99.90
50013;DHT22;35901;48.694;9.476;2022-11-24T01:55:18;4.70;99.90
50013;DHT22;35901;48.694;9.476;2022-11-24T01:58:18;4.60;99.90
50013;DHT22;35901;48.694;9.476;2022-11-24T02:00:44;4.50;99.90
50013;DHT22;35901;48.694;9.476;2022-11-24T02:03:18;4.40;99.90
50013;DHT22;35901;48.694;9.476;2022-11-24T02:06:06;4.40;99.90
50013;DHT22;35901;48.694;9.476;2022-11-24T02:08:50;4.50;99.90
50013;DHT22;35901;48.694;9.476;2022-11-24T02:11:18;4.70;99.90
50013;DHT22;35901;48.694;9.476;2022-11-24T02:13:46;5.10;99.90
50013;DHT22;35901;48.694;9.476;2022-11-24T02:16:12;5.40;99.90
50013;DHT22;35901;48.694;9.476;2022-11-24T02:18:39;5.60;99.90
50013;DHT22;35901;48.694;9.476;2022-11-24T02:21:07;5.70;99.90
50013;DHT22;35901;48.694;9.476;2022-11-24T02:23:59;5.80;99.90
50013;DHT22;35901;48.694;9.476;2022-11-24T02:26:40;5.80;99.90
50013;DHT22;35901;48.694;9.476;2022-11-24T02:29:06;5.90;99.90
50013;DHT22;35901;48.694;9.476;2022-11-24T02:31:33;5.90;99.90
50013;DHT22;35901;48.694;9.476;2022-11-24T02:33:58;6.00;99.90
50013;DHT22;35901;48.694;9.476;2022-11-24T02:36:24;6.00;99.90
50013;DHT22;35901;48.694;9.476;2022-11-24T02:38:50;6.00;99.90
50013;DHT22;35901;48.694;9.476;2022-11-24T02:41:19;5.90;99.90
50013;DHT22;35901;48.694;9.476;2022-11-24T02:43:53;5.90;99.90
50013;DHT22;35901;48.694;9.476;2022-11-24T02:48:44;5.80;99.90
50013;DHT22;35901;48.694;9.476;2022-11-24T02:51:10;5.70;99.90
50013;DHT22;35901;48.694;9.476;2022-11-24T02:53:36;5.60;99.90
50013;DHT22;35901;48.694;9.476;2022-11-24T02:56:01;5.60;99.90
50013;DHT22;35901;48.694;9.476;2022-11-24T02:58:27;5.60;99.90
50013;DHT22;35901;48.694;9.476;2022-11-24T03:00:53;5.50;99.90
50013;DHT22;35901;48.694;9.476;2022-11-24T03:03:22;5.40;99.90
50013;DHT22;35901;48.694;9.476;2022-11-24T03:05:48;5.30;99.90
50013;DHT22;35901;48.694;9.476;2022-11-24T03:08:14;5.10;99.90
50013;DHT22;35901;48.694;9.476;2022-11-24T03:10:40;4.90;99.90
50013;DHT22;35901;48.694;9.476;2022-11-24T03:13:06;4.70;99.90
50013;DHT22;35901;48.694;9.476;2022-11-24T03:15:31;4.50;99.90
50013;DHT22;35901;48.694;9.476;2022-11-24T03:17:57;4.30;99.90
50013;DHT22;35901;48.694;9.476;2022-11-24T03:20:23;4.20;99.90
50013;DHT22;35901;48.694;9.476;2022-11-24T03:22:50;4.10;99.90
50013;DHT22;35901;48.694;9.476;2022-11-24T03:25:15;4.00;99.90
50013;DHT22;35901;48.694;9.476;2022-11-24T03:27:41;4.00;99.90
50013;DHT22;35901;48.694;9.476;2022-11-24T03:30:07;4.00;99.90
50013;DHT22;35901;48.694;9.476;2022-11-24T03:32:33;4.00;99.90
50013;DHT22;35901;48.694;9.476;2022-11-24T03:34:59;4.00;99.90
50013;DHT22;35901;48.694;9.476;2022-11-24T03:37:24;4.00;99.90
50013;DHT22;35901;48.694;9.476;2022-11-24T03:39:50;4.00;99.90
50013;DHT22;35901;48.694;9.476;2022-11-24T03:42:16;4.00;99.90
50013;DHT22;35901;48.694;9.476;2022-11-24T03:44:41;4.00;99.90
50013;DHT22;35901;48.694;9.476;2022-11-24T03:47:08;4.10;99.90
50013;DHT22;35901;48.694;9.476;2022-11-24T03:49:34;4.20;99.90
50013;DHT22;35901;48.694;9.476;2022-11-24T03:52:00;4.20;99.90
50013;DHT22;35901;48.694;9.476;2022-11-24T03:54:26;4.20;99.90
50013;DHT22;35901;48.694;9.476;2022-11-24T03:56:52;4.20;99.90
50013;DHT22;35901;48.694;9.476;2022-11-24T03:59:18;4.10;99.90
50013;DHT22;35901;48.694;9.476;2022-11-24T04:01:44;4.00;99.90
50013;DHT22;35901;48.694;9.476;2022-11-24T04:04:11;3.90;99.90
50013;DHT22;35901;48.694;9.476;2022-11-24T04:06:36;3.80;99.90
50013;DHT22;35901;48.694;9.476;2022-11-24T04:09:03;3.90;99.90
50013;DHT22;35901;48.694;9.476;2022-11-24T04:11:28;4.00;99.90
50013;DHT22;35901;48.694;9.476;2022-11-24T04:14:12;4.00;99.90
50013;DHT22;35901;48.694;9.476;2022-11-24T04:16:38;4.00;99.90
50013;DHT22;35901;48.694;9.476;2022-11-24T04:19:05;3.80;99.90
50013;DHT22;35901;48.694;9.476;2022-11-24T04:21:30;3.90;99.90
50013;DHT22;35901;48.694;9.476;2022-11-24T04:23:56;3.90;99.90
50013;DHT22;35901;48.694;9.476;2022-11-24T04:26:22;3.90;99.90
50013;DHT22;35901;48.694;9.476;2022-11-24T04:28:47;4.00;99.90
50013;DHT22;35901;48.694;9.476;2022-11-24T04:31:16;4.00;99.90
50013;DHT22;35901;48.694;9.476;2022-11-24T04:33:42;3.90;99.90
50013;DHT22;35901;48.694;9.476;2022-11-24T04:36:08;3.90;99.90
50013;DHT22;35901;48.694;9.476;2022-11-24T04:38:34;3.90;99.90
50013;DHT22;35901;48.694;9.476;2022-11-24T04:41:00;3.90;99.90
50013;DHT22;35901;48.694;9.476;2022-11-24T04:43:28;3.90;99.90
50013;DHT22;35901;48.694;9.476;2022-11-24T04:45:53;3.90;99.90
50013;DHT22;35901;48.694;9.476;2022-11-24T04:48:20;4.10;99.90
50013;DHT22;35901;48.694;9.476;2022-11-24T04:50:45;4.40;99.90
50013;DHT22;35901;48.694;9.476;2022-11-24T04:53:11;4.70;99.90
50013;DHT22;35901;48.694;9.476;2022-11-24T04:55:38;4.80;99.90
50013;DHT22;35901;48.694;9.476;2022-11-24T04:58:07;4.80;99.90
50013;DHT22;35901;48.694;9.476;2022-11-24T05:00:33;4.60;99.90
50013;DHT22;35901;48.694;9.476;2022-11-24T05:02:58;4.50;99.90
50013;DHT22;35901;48.694;9.476;2022-11-24T05:05:24;4.50;99.90
50013;DHT22;35901;48.694;9.476;2022-11-24T05:07:50;4.50;99.90
50013;DHT22;35901;48.694;9.476;2022-11-24T05:10:15;4.50;99.90
50013;DHT22;35901;48.694;9.476;2022-11-24T05:12:59;4.60;99.90
50013;DHT22;35901;48.694;9.476;2022-11-24T05:15:25;4.70;99.90
50013;DHT22;35901;48.694;9.476;2022-11-24T05:17:51;4.90;99.90
50013;DHT22;35901;48.694;9.476;2022-11-24T05:20:17;5.10;99.90
50013;DHT22;35901;48.694;9.476;2022-11-24T05:22:43;5.10;99.90
50013;DHT22;35901;48.694;9.476;2022-11-24T05:25:08;5.10;99.90
50013;DHT22;35901;48.694;9.476;2022-11-24T05:27:34;4.80;99.90
50013;DHT22;35901;48.694;9.476;2022-11-24T05:30:00;4.50;99.90
50013;DHT22;35901;48.694;9.476;2022-11-24T05:32:29;4.20;99.90
50013;DHT22;35901;48.694;9.476;2022-11-24T05:34:55;4.00;99.90
50013;DHT22;35901;48.694;9.476;2022-11-24T05:37:21;3.80;99.90
50013;DHT22;35901;48.694;9.476;2022-11-24T05:39:46;3.80;99.90
50013;DHT22;35901;48.694;9.476;2022-11-24T05:42:12;3.80;99.90
50013;DHT22;35901;48.694;9.476;2022-11-24T05:44:56;3.80;99.90
50013;DHT22;35901;48.694;9.476;2022-11-24T05:47:22;3.80;99.90
50013;DHT22;35901;48.694;9.476;2022-11-24T05:49:48;3.60;99.90
50013;DHT22;35901;48.694;9.476;2022-11-24T05:52:14;3.50;99.90
50013;DHT22;35901;48.694;9.476;2022-11-24T05:54:40;3.60;99.90
50013;DHT22;35901;48.694;9.476;2022-11-24T05:57:06;3.80;99.90
50013;DHT22;35901;48.694;9.476;2022-11-24T05:59:32;4.00;99.90
50013;DHT22;35901;48.694;9.476;2022-11-24T06:01:59;3.90;99.90
50013;DHT22;35901;48.694;9.476;2022-11-24T06:04:25;3.80;99.90
50013;DHT22;35901;48.694;9.476;2022-11-24T06:06:51;3.60;99.90
50013;DHT22;35901;48.694;9.476;2022-11-24T06:09:16;3.50;99.90
50013;DHT22;35901;48.694;9.476;2022-11-24T06:11:42;3.30;99.90
50013;DHT22;35901;48.694;9.476;2022-11-24T06:14:09;3.30;99.90
50013;DHT22;35901;48.694;9.476;2022-11-24T06:16:35;3.10;99.90
50013;DHT22;35901;48.694;9.476;2022-11-24T06:19:00;3.00;99.90
50013;DHT22;35901;48.694;9.476;2022-11-24T06:21:26;3.00;99.90
50013;DHT22;35901;48.694;9.476;2022-11-24T06:23:52;3.00;99.90
50013;DHT22;35901;48.694;9.476;2022-11-24T06:26:18;3.00;99.90
50013;DHT22;35901;48.694;9.476;2022-11-24T06:28:43;3.10;99.90
50013;DHT22;35901;48.694;9.476;2022-11-24T06:31:09;3.20;99.90
50013;DHT22;35901;48.694;9.476;2022-11-24T06:33:37;3.20;99.90
50013;DHT22;35901;48.694;9.476;2022-11-24T06:36:08;3.30;99.90
50013;DHT22;35901;48.694;9.476;2022-11-24T06:38:35;3.30;99.90
50013;DHT22;35901;48.694;9.476;2022-11-24T06:41:02;3.30;99.90
50013;DHT22;35901;48.694;9.476;2022-11-24T06:43:29;3.20;99.90
50013;DHT22;35901;48.694;9.476;2022-11-24T06:45:55;3.30;99.90
50013;DHT22;35901;48.694;9.476;2022-11-24T06:48:22;3.40;99.90
50013;DHT22;35901;48.694;9.476;2022-11-24T06:50:48;3.80;99.90
50013;DHT22;35901;48.694;9.476;2022-11-24T06:53:14;4.20;99.90
50013;DHT22;35901;48.694;9.476;2022-11-24T06:55:40;4.50;99.90
50013;DHT22;35901;48.694;9.476;2022-11-24T06:58:06;4.60;99.90
50013;DHT22;35901;48.694;9.476;2022-11-24T07:00:32;4.70;99.90
50013;DHT22;35901;48.694;9.476;2022-11-24T07:02:58;4.80;99.90
50013;DHT22;35901;48.694;9.476;2022-11-24T07:05:24;4.90;99.90
50013;DHT22;35901;48.694;9.476;2022-11-24T07:07:50;5.10;99.90
50013;DHT22;35901;48.694;9.476;2022-11-24T07:10:16;5.20;99.90
50013;DHT22;35901;48.694;9.476;2022-11-24T07:12:41;5.20;99.90
50013;DHT22;35901;48.694;9.476;2022-11-24T07:15:08;5.10;99.90
50013;DHT22;35901;48.694;9.476;2022-11-24T07:17:38;5.00;99.90
50013;DHT22;35901;48.694;9.476;2022-11-24T07:20:05;4.80;99.90
50013;DHT22;35901;48.694;9.476;2022-11-24T07:22:31;4.60;99.90
50013;DHT22;35901;48.694;9.476;2022-11-24T07:24:57;4.40;99.90
50013;DHT22;35901;48.694;9.476;2022-11-24T07:27:22;4.40;99.90
50013;DHT22;35901;48.694;9.476;2022-11-24T07:29:48;4.50;99.90
50013;DHT22;35901;48.694;9.476;2022-11-24T07:32:14;4.60;99.90
50013;DHT22;35901;48.694;9.476;2022-11-24T07:34:39;4.60;99.90
50013;DHT22;35901;48.694;9.476;2022-11-24T07:37:08;4.70;99.90
50013;DHT22;35901;48.694;9.476;2022-11-24T07:39:33;4.70;99.90
50013;DHT22;35901;48.694;9.476;2022-11-24T07:41:59;4.80;99.90
50013;DHT22;35901;48.694;9.476;2022-11-24T07:44:25;4.90;99.90
50013;DHT22;35901;48.694;9.476;2022-11-24T07:46:51;4.90;99.90
50013;DHT22;35901;48.694;9.476;2022-11-24T07:49:18;5.00;99.90
50013;DHT22;35901;48.694;9.476;2022-11-24T07:51:44;5.00;99.90
50013;DHT22;35901;48.694;9.476;2022-11-24T07:54:09;5.10;99.90
50013;DHT22;35901;48.694;9.476;2022-11-24T07:56:35;5.10;99.90
50013;DHT22;35901;48.694;9.476;2022-11-24T07:59:01;5.20;99.90
50013;DHT22;35901;48.694;9.476;2022-11-24T08:01:29;5.20;99.90
50013;DHT22;35901;48.694;9.476;2022-11-24T08:03:55;5.20;99.90
50013;DHT22;35901;48.694;9.476;2022-11-24T08:06:21;5.10;99.90
50013;DHT22;35901;48.694;9.476;2022-11-24T08:08:46;5.10;99.90
50013;DHT22;35901;48.694;9.476;2022-11-24T08:11:14;5.00;99.90
50013;DHT22;35901;48.694;9.476;2022-11-24T08:13:40;4.90;99.90
50013;DHT22;35901;48.694;9.476;2022-11-24T08:16:12;4.90;99.90
50013;DHT22;35901;48.694;9.476;2022-11-24T08:18:38;4.90;99.90
50013;DHT22;35901;48.694;9.476;2022-11-24T08:21:05;4.80;99.90
50013;DHT22;35901;48.694;9.476;2022-11-24T08:23:31;4.80;99.90
50013;DHT22;35901;48.694;9.476;2022-11-24T08:25:57;4.80;99.90
50013;DHT22;35901;48.694;9.476;2022-11-24T08:28:28;4.90;99.90
50013;DHT22;35901;48.694;9.476;2022-11-24T08:31:11;4.90;99.90
50013;DHT22;35901;48.694;9.476;2022-11-24T08:33:37;5.00;99.90
50013;DHT22;35901;48.694;9.476;2022-11-24T08:36:17;5.00;99.90
50013;DHT22;35901;48.694;9.476;2022-11-24T08:38:44;5.10;99.90
50013;DHT22;35901;48.694;9.476;2022-11-24T08:41:12;5.10;99.90
50013;DHT22;35901;48.694;9.476;2022-11-24T08:43:38;5.10;99.90
50013;DHT22;35901;48.694;9.476;2022-11-24T08:46:07;5.20;99.90
50013;DHT22;35901;48.694;9.476;2022-11-24T08:48:33;5.20;99.90
50013;DHT22;35901;48.694;9.476;2022-11-24T08:51:06;5.20;99.90
50013;DHT22;35901;48.694;9.476;2022-11-24T08:53:32;5.30;99.90
50013;DHT22;35901;48.694;9.476;2022-11-24T08:56:01;5.30;99.90
50013;DHT22;35901;48.694;9.476;2022-11-24T08:58:28;5.40;99.90
50013;DHT22;35901;48.694;9.476;2022-11-24T09:00:54;5.40;99.90
50013;DHT22;35901;48.694;9.476;2022-11-24T09:03:19;5.50;99.90
50013;DHT22;35901;48.694;9.476;2022-11-24T09:05:45;5.60;99.90
50013;DHT22;35901;48.694;9.476;2022-11-24T09:08:11;5.70;99.90
50013;DHT22;35901;48.694;9.476;2022-11-24T09:10:36;5.80;99.90
50013;DHT22;35901;48.694;9.476;2022-11-24T09:13:03;5.90;99.90
50013;DHT22;35901;48.694;9.476;2022-11-24T09:15:29;6.00;99.90
50013;DHT22;35901;48.694;9.476;2022-11-24T09:17:54;6.00;99.90
50013;DHT22;35901;48.694;9.476;2022-11-24T09:20:21;6.00;99.90
50013;DHT22;35901;48.694;9.476;2022-11-24T09:22:47;6.00;99.90
50013;DHT22;35901;48.694;9.476;2022-11-24T09:25:12;6.00;99.90
50013;DHT22;35901;48.694;9.476;2022-11-24T09:27:39;6.00;99.90
50013;DHT22;35901;48.694;9.476;2022-11-24T09:30:05;6.10;99.90
50013;DHT22;35901;48.694;9.476;2022-11-24T09:32:31;6.20;99.90
50013;DHT22;35901;48.694;9.476;2022-11-24T09:34:57;6.20;99.90
50013;DHT22;35901;48.694;9.476;2022-11-24T09:37:22;6.30;99.90
50013;DHT22;35901;48.694;9.476;2022-11-24T09:39:48;6.40;99.90
50013;DHT22;35901;48.694;9.476;2022-11-24T09:42:31;6.40;99.90
50013;DHT22;35901;48.694;9.476;2022-11-24T09:45:04;6.50;99.90
50013;DHT22;35901;48.694;9.476;2022-11-24T09:50:22;6.60;99.90
50013;DHT22;35901;48.694;9.476;2022-11-24T09:56:19;6.70;99.90
50013;DHT22;35901;48.694;9.476;2022-11-24T09:58:53;6.70;99.90
50013;DHT22;35901;48.694;9.476;2022-11-24T10:01:27;6.80;99.90
50013;DHT22;35901;48.694;9.476;2022-11-24T10:03:54;6.80;99.90
50013;DHT22;35901;48.694;9.476;2022-11-24T10:06:24;6.80;99.90
50013;DHT22;35901;48.694;9.476;2022-11-24T10:11:59;6.70;99.90
50013;DHT22;35901;48.694;9.476;2022-11-24T10:28:01;6.70;99.90
50013;DHT22;35901;48.694;9.476;2022-11-24T10:30:29;6.80;99.90
50013;DHT22;35901;48.694;9.476;2022-11-24T10:32:59;6.80;99.90
50013;DHT22;35901;48.694;9.476;2022-11-24T10:35:36;6.80;99.90
50013;DHT22;35901;48.694;9.476;2022-11-24T10:40:53;6.90;99.90
50013;DHT22;35901;48.694;9.476;2022-11-24T10:43:20;6.90;99.90
50013;DHT22;35901;48.694;9.476;2022-11-24T10:45:46;6.90;99.90
50013;DHT22;35901;48.694;9.476;2022-11-24T10:48:24;6.90;99.90
50013;DHT22;35901;48.694;9.476;2022-11-24T10:50:52;7.10;99.90
50013;DHT22;35901;48.694;9.476;2022-11-24T10:53:29;7.20;99.90
50013;DHT22;35901;48.694;9.476;2022-11-24T10:58:34;7.50;99.90
50013;DHT22;35901;48.694;9.476;2022-11-24T11:01:26;7.70;99.90
50013;DHT22;35901;48.694;9.476;2022-11-24T11:03:55;7.90;99.90
50013;DHT22;35901;48.694;9.476;2022-11-24T11:06:25;8.00;99.90
50013;DHT22;35901;48.694;9.476;2022-11-24T11:11:33;8.00;99.90
50013;DHT22;35901;48.694;9.476;2022-11-24T11:16:40;8.00;99.90
50013;DHT22;35901;48.694;9.476;2022-11-24T11:19:35;7.90;99.90
50013;DHT22;35901;48.694;9.476;2022-11-24T11:22:20;8.00;99.90
50013;DHT22;35901;48.694;9.476;2022-11-24T11:25:22;8.30;99.90
50013;DHT22;35901;48.694;9.476;2022-11-24T11:27:47;9.10;99.90
50013;DHT22;35901;48.694;9.476;2022-11-24T11:30:25;9.40;99.90
50013;DHT22;35901;48.694;9.476;2022-11-24T11:32:59;9.30;99.90
50013;DHT22;35901;48.694;9.476;2022-11-24T11:35:27;9.10;99.90
50013;DHT22;35901;48.694;9.476;2022-11-24T11:37:59;8.80;99.90
50013;DHT22;35901;48.694;9.476;2022-11-24T11:40:28;8.50;99.90
50013;DHT22;35901;48.694;9.476;2022-11-24T11:45:44;8.80;99.90
50013;DHT22;35901;48.694;9.476;2022-11-24T11:48:27;9.20;99.90
50013;DHT22;35901;48.694;9.476;2022-11-24T11:53:30;9.30;99.90
50013;DHT22;35901;48.694;9.476;2022-11-24T11:56:14;9.30;99.90
50013;DHT22;35901;48.694;9.476;2022-11-24T12:04:35;8.80;99.90
50013;DHT22;35901;48.694;9.476;2022-11-24T12:07:26;8.70;99.90
50013;DHT22;35901;48.694;9.476;2022-11-24T12:12:39;8.70;99.90
50013;DHT22;35901;48.694;9.476;2022-11-24T12:15:48;8.70;99.90
50013;DHT22;35901;48.694;9.476;2022-11-24T12:21:15;8.70;99.90
50013;DHT22;35901;48.694;9.476;2022-11-24T12:23:52;8.70;99.90
50013;DHT22;35901;48.694;9.476;2022-11-24T12:26:25;8.70;99.90
50013;DHT22;35901;48.694;9.476;2022-11-24T12:37:06;8.80;99.90
50013;DHT22;35901;48.694;9.476;2022-11-24T12:42:39;8.80;99.90
50013;DHT22;35901;48.694;9.476;2022-11-24T12:47:54;8.80;99.90
50013;DHT22;35901;48.694;9.476;2022-11-24T12:50:27;8.80;99.90
50013;DHT22;35901;48.694;9.476;2022-11-24T12:53:03;8.80;99.90
50013;DHT22;35901;48.694;9.476;2022-11-24T12:55:29;8.70;99.90
50013;DHT22;35901;48.694;9.476;2022-11-24T12:58:23;8.60;99.90
50013;DHT22;35901;48.694;9.476;2022-11-24T13:03:59;8.50;99.90
50013;DHT22;35901;48.694;9.476;2022-11-24T13:07:07;8.40;99.90
50013;DHT22;35901;48.694;9.476;2022-11-24T13:09:34;8.50;99.90
50013;DHT22;35901;48.694;9.476;2022-11-24T13:12:13;8.50;99.90
50013;DHT22;35901;48.694;9.476;2022-11-24T13:14:42;8.50;99.90
50013;DHT22;35901;48.694;9.476;2022-11-24T13:19:50;8.70;99.90
50013;DHT22;35901;48.694;9.476;2022-11-24T13:22:24;8.80;99.90
50013;DHT22;35901;48.694;9.476;2022-11-24T13:27:46;9.00;99.90
50013;DHT22;35901;48.694;9.476;2022-11-24T13:35:35;8.80;99.90
50013;DHT22;35901;48.694;9.476;2022-11-24T13:38:01;8.70;99.90
50013;DHT22;35901;48.694;9.476;2022-11-24T13:58:36;8.60;99.90
50013;DHT22;35901;48.694;9.476;2022-11-24T14:01:10;8.70;99.90
50013;DHT22;35901;48.694;9.476;2022-11-24T14:06:37;8.80;99.90
50013;DHT22;35901;48.694;9.476;2022-11-24T14:09:26;8.80;99.90
50013;DHT22;35901;48.694;9.476;2022-11-24T14:14:40;8.90;99.90
50013;DHT22;35901;48.694;9.476;2022-11-24T14:19:41;8.90;99.90
50013;DHT22;35901;48.694;9.476;2022-11-24T14:24:45;8.80;99.90
50013;DHT22;35901;48.694;9.476;2022-11-24T14:27:16;8.80;99.90
50013;DHT22;35901;48.694;9.476;2022-11-24T14:29:58;8.80;99.90
50013;DHT22;35901;48.694;9.476;2022-11-24T14:32:24;8.80;99.90
50013;DHT22;35901;48.694;9.476;2022-11-24T14:34:50;8.90;99.90
50013;DHT22;35901;48.694;9.476;2022-11-24T14:37:17;9.00;99.90
50013;DHT22;35901;48.694;9.476;2022-11-24T14:39:43;9.00;99.90
50013;DHT22;35901;48.694;9.476;2022-11-24T14:42:19;9.10;99.90
50013;DHT22;35901;48.694;9.476;2022-11-24T14:44:59;9.20;99.90
50013;DHT22;35901;48.694;9.476;2022-11-24T14:47:33;9.30;99.90
50013;DHT22;35901;48.694;9.476;2022-11-24T14:50:11;9.40;99.90
50013;DHT22;35901;48.694;9.476;2022-11-24T14:52:55;9.40;99.90
50013;DHT22;35901;48.694;9.476;2022-11-24T14:55:28;9.40;99.90
50013;DHT22;35901;48.694;9.476;2022-11-24T14:57:54;9.40;99.90
50013;DHT22;35901;48.694;9.476;2022-11-24T15:00:30;9.30;99.90
50013;DHT22;35901;48.694;9.476;2022-11-24T15:05:25;9.20;99.90
50013;DHT22;35901;48.694;9.476;2022-11-24T15:08:00;9.20;99.90
50013;DHT22;35901;48.694;9.476;2022-11-24T15:10:35;9.20;99.90
50013;DHT22;35901;48.694;9.476;2022-11-24T15:13:04;9.10;99.90
50013;DHT22;35901;48.694;9.476;2022-11-24T15:15:37;9.10;99.90
50013;DHT22;35901;48.694;9.476;2022-11-24T15:18:05;9.00;99.90
50013;DHT22;35901;48.694;9.476;2022-11-24T15:23:22;8.90;99.90
50013;DHT22;35901;48.694;9.476;2022-11-24T15:25:50;8.80;99.90
50013;DHT22;35901;48.694;9.476;2022-11-24T15:28:15;8.80;99.90
50013;DHT22;35901;48.694;9.476;2022-11-24T15:30:41;8.70;99.90
50013;DHT22;35901;48.694;9.476;2022-11-24T15:33:15;8.70;99.90
50013;DHT22;35901;48.694;9.476;2022-11-24T15:35:42;8.70;99.90
50013;DHT22;35901;48.694;9.476;2022-11-24T15:38:09;8.60;99.90
50013;DHT22;35901;48.694;9.476;2022-11-24T15:40:39;8.60;99.90
50013;DHT22;35901;48.694;9.476;2022-11-24T15:43:37;8.50;99.90
50013;DHT22;35901;48.694;9.476;2022-11-24T15:46:05;8.50;99.90
50013;DHT22;35901;48.694;9.476;2022-11-24T15:48:30;8.50;99.90
50013;DHT22;35901;48.694;9.476;2022-11-24T15:50:58;8.50;99.90
50013;DHT22;35901;48.694;9.476;2022-11-24T15:53:36;8.50;99.90
50013;DHT22;35901;48.694;9.476;2022-11-24T15:56:05;8.50;99.90
50013;DHT22;35901;48.694;9.476;2022-11-24T15:58:31;8.40;99.90
50013;DHT22;35901;48.694;9.476;2022-11-24T16:00:57;8.40;99.90
50013;DHT22;35901;48.694;9.476;2022-11-24T16:03:23;8.30;99.90
50013;DHT22;35901;48.694;9.476;2022-11-24T16:05:51;8.30;99.90
50013;DHT22;35901;48.694;9.476;2022-11-24T16:08:19;8.30;99.90
50013;DHT22;35901;48.694;9.476;2022-11-24T16:10:44;8.20;99.90
50013;DHT22;35901;48.694;9.476;2022-11-24T16:13:10;8.20;99.90
50013;DHT22;35901;48.694;9.476;2022-11-24T16:15:37;8.20;99.90
50013;DHT22;35901;48.694;9.476;2022-11-24T16:18:04;8.10;99.90
50013;DHT22;35901;48.694;9.476;2022-11-24T16:20:33;8.00;99.90
50013;DHT22;35901;48.694;9.476;2022-11-24T16:23:01;7.80;99.90
50013;DHT22;35901;48.694;9.476;2022-11-24T16:25:27;7.70;99.90
50013;DHT22;35901;48.694;9.476;2022-11-24T16:27:53;7.60;99.90
50013;DHT22;35901;48.694;9.476;2022-11-24T16:30:18;7.50;99.90
50013;DHT22;35901;48.694;9.476;2022-11-24T16:32:44;7.30;99.90
50013;DHT22;35901;48.694;9.476;2022-11-24T16:35:10;7.10;99.90
50013;DHT22;35901;48.694;9.476;2022-11-24T16:37:36;6.90;99.90
50013;DHT22;35901;48.694;9.476;2022-11-24T16:40:02;6.70;99.90
50013;DHT22;35901;48.694;9.476;2022-11-24T16:42:28;6.60;99.90
50013;DHT22;35901;48.694;9.476;2022-11-24T16:44:53;6.40;99.90
50013;DHT22;35901;48.694;9.476;2022-11-24T16:47:19;6.20;99.90
50013;DHT22;35901;48.694;9.476;2022-11-24T16:49:45;6.10;99.90
50013;DHT22;35901;48.694;9.476;2022-11-24T16:52:12;6.00;99.90
50013;DHT22;35901;48.694;9.476;2022-11-24T16:54:38;5.90;99.90
50013;DHT22;35901;48.694;9.476;2022-11-24T16:57:04;6.00;99.90
50013;DHT22;35901;48.694;9.476;2022-11-24T16:59:37;6.10;99.90
50013;DHT22;35901;48.694;9.476;2022-11-24T17:02:03;6.10;99.90
50013;DHT22;35901;48.694;9.476;2022-11-24T17:04:29;6.00;99.90
50013;DHT22;35901;48.694;9.476;2022-11-24T17:06:54;5.70;99.90
50013;DHT22;35901;48.694;9.476;2022-11-24T17:09:20;5.40;99.90
50013;DHT22;35901;48.694;9.476;2022-11-24T17:11:46;5.00;99.90
50013;DHT22;35901;48.694;9.476;2022-11-24T17:14:12;4.80;99.90
50013;DHT22;35901;48.694;9.476;2022-11-24T17:16:37;4.50;99.90
50013;DHT22;35901;48.694;9.476;2022-11-24T17:19:04;4.40;99.90
50013;DHT22;35901;48.694;9.476;2022-11-24T17:21:30;4.40;99.90
50013;DHT22;35901;48.694;9.476;2022-11-24T17:23:58;4.40;99.90
50013;DHT22;35901;48.694;9.476;2022-11-24T17:26:25;4.50;99.90
50013;DHT22;35901;48.694;9.476;2022-11-24T17:28:52;4.40;99.90
50013;DHT22;35901;48.694;9.476;2022-11-24T17:31:27;4.50;99.90
50013;DHT22;35901;48.694;9.476;2022-11-24T17:33:55;4.40;99.90
50013;DHT22;35901;48.694;9.476;2022-11-24T17:36:21;4.30;99.90
50013;DHT22;35901;48.694;9.476;2022-11-24T17:38:47;4.20;99.90
50013;DHT22;35901;48.694;9.476;2022-11-24T17:41:14;4.00;99.90
50013;DHT22;35901;48.694;9.476;2022-11-24T17:43:39;3.80;99.90
50013;DHT22;35901;48.694;9.476;2022-11-24T17:46:05;3.60;99.90
50013;DHT22;35901;48.694;9.476;2022-11-24T17:48:33;3.50;99.90
50013;DHT22;35901;48.694;9.476;2022-11-24T17:51:04;3.20;99.90